Time;durP1;ratioP1;P1;durP2;ratioP2;P2;SDS_P1;SDS_P2;PMS_P1;PMS_P2;Temp;Humidity;BMP_temperature;BMP_pressure;BME280_temperature;BME280_humidity;BME280_pressure;Samples;Min_cycle;Max_cycle;Signal;HPM_P1;HPM_P2
2023/12/03 00:00:53;;;;;;;0.50;0.37;;;;;;;10.69;100.00;94719.09;5104164;28;20558;-58
2023/12/03 00:03:22;;;;;;;1.00;0.90;;;;;;;10.79;100.00;94712.88;5114912;28;21009;-58
2023/12/03 00:05:51;;;;;;;0.53;0.40;;;;;;;10.77;100.00;94707.88;5114508;28;20509;-58
2023/12/03 00:08:20;;;;;;;0.40;0.40;;;;;;;10.69;100.00;94708.50;5109322;28;20440;-59
2023/12/03 00:10:50;;;;;;;0.40;0.40;;;;;;;10.38;100.00;94719.72;5094615;28;20437;-58
2023/12/03 00:13:19;;;;;;;0.73;0.50;;;;;;;10.43;100.00;94715.16;5093891;28;20433;-58
2023/12/03 00:15:49;;;;;;;5.90;0.50;;;;;;;10.16;100.00;94721.03;5094122;28;20504;-58
2023/12/03 00:18:17;;;;;;;0.30;0.30;;;;;;;10.30;100.00;94722.97;5106939;28;20824;-57
2023/12/03 00:20:46;;;;;;;0.30;0.20;;;;;;;10.28;100.00;94714.53;5107212;28;20475;-57
2023/12/03 00:23:15;;;;;;;0.40;0.40;;;;;;;10.39;100.00;94713.38;5080812;28;20493;-57
2023/12/03 00:25:43;;;;;;;0.50;0.40;;;;;;;10.47;100.00;94724.13;5093379;28;20448;-57
2023/12/03 00:28:12;;;;;;;0.67;0.67;;;;;;;10.43;100.00;94691.31;5093777;28;20503;-57
2023/12/03 00:30:40;;;;;;;0.40;0.30;;;;;;;10.62;100.00;94709.91;5092869;28;21004;-57
2023/12/03 00:33:10;;;;;;;0.30;0.27;;;;;;;10.49;100.00;94723.84;5093847;28;20428;-58
2023/12/03 00:35:39;;;;;;;2.20;0.50;;;;;;;10.39;100.00;94723.97;5095454;28;20475;-58
2023/12/03 00:38:07;;;;;;;1.10;1.10;;;;;;;10.08;100.00;94708.38;5113383;28;20446;-58
2023/12/03 00:40:37;;;;;;;3.17;2.20;;;;;;;9.92;100.00;94722.81;5110662;28;20472;-58
2023/12/03 00:43:05;;;;;;;4.10;0.53;;;;;;;9.87;100.00;94714.91;5103734;28;20475;-58
2023/12/03 00:45:34;;;;;;;1.33;0.60;;;;;;;10.13;100.00;94729.53;5113480;28;20447;-57
2023/12/03 00:48:03;;;;;;;7.50;0.57;;;;;;;10.36;100.00;94727.97;5102854;28;20443;-58
2023/12/03 00:50:33;;;;;;;0.40;0.30;;;;;;;10.37;100.00;94728.75;5092904;28;20440;-57
2023/12/03 00:53:02;;;;;;;0.40;0.30;;;;;;;10.10;100.00;94718.66;5104907;28;20874;-57
2023/12/03 00:55:30;;;;;;;1.07;0.30;;;;;;;10.30;100.00;94715.84;5100188;28;20439;-58
2023/12/03 00:57:59;;;;;;;2.50;1.80;;;;;;;10.27;100.00;94718.28;5101426;28;20545;-57
2023/12/03 01:00:27;;;;;;;0.40;0.30;;;;;;;10.29;100.00;94722.22;5112935;28;20513;-57
2023/12/03 01:02:56;;;;;;;1.33;1.33;;;;;;;10.44;100.00;94729.19;5113607;28;20458;-57
2023/12/03 01:05:25;;;;;;;0.40;0.30;;;;;;;10.49;100.00;94729.94;5086709;28;20438;-57
2023/12/03 01:07:55;;;;;;;1.07;0.60;;;;;;;10.50;100.00;94718.25;5098169;28;20528;-57
2023/12/03 01:10:23;;;;;;;0.40;0.30;;;;;;;10.44;100.00;94737.94;5101106;28;20467;-57
2023/12/03 01:12:52;;;;;;;0.40;0.40;;;;;;;10.41;100.00;94735.06;5099038;28;20436;-57
2023/12/03 01:15:20;;;;;;;0.47;0.30;;;;;;;10.53;100.00;94743.41;5113398;28;20492;-57
2023/12/03 01:17:49;;;;;;;0.40;0.30;;;;;;;10.58;100.00;94724.78;5098784;28;20437;-57
2023/12/03 01:20:18;;;;;;;0.37;0.30;;;;;;;10.58;100.00;94736.19;5103630;28;20476;-57
2023/12/03 01:22:46;;;;;;;0.40;0.30;;;;;;;10.62;100.00;94736.41;5106355;28;20486;-57
2023/12/03 01:25:16;;;;;;;0.40;0.30;;;;;;;10.50;100.00;94746.63;5093013;28;20443;-57
2023/12/03 01:27:45;;;;;;;0.40;0.40;;;;;;;10.50;100.00;94728.84;5092620;28;20487;-58
2023/12/03 01:30:14;;;;;;;0.40;0.30;;;;;;;10.47;100.00;94742.69;5092357;28;20516;-57
2023/12/03 01:32:43;;;;;;;0.50;0.40;;;;;;;10.56;100.00;94750.78;5097118;28;20441;-57
2023/12/03 01:35:11;;;;;;;1.80;0.43;;;;;;;10.52;100.00;94747.13;5101032;28;20438;-58
2023/12/03 01:37:40;;;;;;;0.47;0.33;;;;;;;10.35;100.00;94742.25;5097120;28;20435;-57
2023/12/03 01:40:10;;;;;;;0.40;0.40;;;;;;;10.34;100.00;94743.34;5100078;28;20464;-58
2023/12/03 01:42:40;;;;;;;0.80;0.80;;;;;;;10.07;100.00;94751.00;5112363;28;20443;-57
2023/12/03 01:45:09;;;;;;;0.60;0.57;;;;;;;10.01;100.00;94750.28;5098673;28;20440;-58
2023/12/03 01:47:38;;;;;;;0.40;0.30;;;;;;;10.14;100.00;94744.31;5091961;28;20464;-57
2023/12/03 01:50:09;;;;;;;0.70;0.70;;;;;;;9.78;100.00;94689.34;5091740;28;20445;-59
2023/12/03 01:52:39;;;;;;;2.10;0.70;;;;;;;9.91;100.00;94736.31;5100665;28;20456;-58
2023/12/03 01:55:11;;;;;;;0.30;0.20;;;;;;;10.20;100.00;94739.78;5095459;28;20468;-57
2023/12/03 01:57:42;;;;;;;0.50;0.47;;;;;;;10.14;100.00;94748.84;5091843;28;20933;-58
2023/12/03 02:00:12;;;;;;;5.13;1.33;;;;;;;9.85;100.00;94725.00;5096115;28;20584;-58
2023/12/03 02:02:41;;;;;;;0.67;0.67;;;;;;;10.10;100.00;94748.59;5100919;28;20940;-57
2023/12/03 02:05:10;;;;;;;0.50;0.40;;;;;;;10.23;100.00;94749.00;5096353;28;20443;-58
2023/12/03 02:07:38;;;;;;;0.50;0.47;;;;;;;10.24;100.00;94737.38;5100248;28;20455;-58
2023/12/03 02:10:08;;;;;;;0.53;0.50;;;;;;;10.25;100.00;94746.88;5097590;28;21013;-58
2023/12/03 02:12:38;;;;;;;0.50;0.50;;;;;;;10.34;100.00;94743.34;5112352;28;20471;-58
2023/12/03 02:15:09;;;;;;;0.40;0.40;;;;;;;10.50;100.00;94749.28;5078680;28;20932;-58
2023/12/03 02:17:38;;;;;;;0.40;0.30;;;;;;;10.18;100.00;94753.31;5092440;28;20440;-58
2023/12/03 02:20:07;;;;;;;0.40;0.30;;;;;;;10.08;100.00;94758.66;5103642;28;20857;-59
2023/12/03 02:22:43;;;;;;;0.40;0.20;;;;;;;10.10;100.00;94755.72;5106659;28;20453;-58
2023/12/03 02:25:11;;;;;;;0.40;0.30;;;;;;;10.30;100.00;94755.56;5112135;28;20457;-58
2023/12/03 02:27:40;;;;;;;4.33;0.37;;;;;;;10.30;100.00;94747.63;5094440;28;20433;-58
2023/12/03 02:30:09;;;;;;;0.63;0.43;;;;;;;10.41;100.00;94750.94;5103290;28;21030;-58
2023/12/03 02:32:38;;;;;;;0.40;0.30;;;;;;;10.04;100.00;94754.22;5111578;28;20950;-58
2023/12/03 02:35:07;;;;;;;0.83;0.83;;;;;;;10.01;100.00;94757.41;5100177;28;20436;-58
2023/12/03 02:37:36;;;;;;;2.77;0.40;;;;;;;10.09;100.00;94756.81;5096758;28;20928;-58
2023/12/03 02:40:08;;;;;;;0.40;0.30;;;;;;;10.24;100.00;94753.25;5098371;28;20497;-58
2023/12/03 02:42:36;;;;;;;0.93;0.83;;;;;;;10.34;100.00;94746.00;5098974;28;20432;-58
2023/12/03 02:45:06;;;;;;;0.40;0.30;;;;;;;10.28;100.00;94735.72;5111835;28;20439;-58
2023/12/03 02:47:35;;;;;;;0.30;0.20;;;;;;;10.38;100.00;94752.31;5104819;28;20533;-58
2023/12/03 02:50:04;;;;;;;0.50;0.50;;;;;;;10.38;100.00;94757.59;5105236;28;20439;-58
2023/12/03 02:52:32;;;;;;;0.77;0.77;;;;;;;10.20;100.00;94758.31;5099485;28;20484;-58
2023/12/03 02:55:01;;;;;;;0.40;0.30;;;;;;;10.06;100.00;94760.81;5098453;28;20472;-58
2023/12/03 02:57:31;;;;;;;0.40;0.30;;;;;;;10.20;100.00;94761.75;5102780;28;20432;-58
2023/12/03 02:59:59;;;;;;;0.33;0.30;;;;;;;10.35;100.00;94757.38;5093875;28;20444;-58
2023/12/03 03:02:28;;;;;;;0.70;0.70;;;;;;;10.29;100.00;94755.84;5111671;28;20520;-58
2023/12/03 03:04:56;;;;;;;12.57;0.57;;;;;;;10.36;100.00;94751.81;5098290;28;20439;-58
2023/12/03 03:07:25;;;;;;;0.40;0.30;;;;;;;10.34;100.00;94750.50;5101475;28;20432;-58
2023/12/03 03:09:53;;;;;;;0.77;0.77;;;;;;;10.38;100.00;94751.50;5104576;28;20939;-58
2023/12/03 03:12:22;;;;;;;0.50;0.50;;;;;;;10.37;100.00;94747.31;5103106;28;20936;-58
2023/12/03 03:14:52;;;;;;;0.40;0.30;;;;;;;10.27;100.00;94753.47;5112075;28;20470;-58
2023/12/03 03:17:21;;;;;;;0.40;0.30;;;;;;;10.33;100.00;94759.50;5102572;28;20436;-58
2023/12/03 03:19:49;;;;;;;0.40;0.30;;;;;;;10.38;100.00;94752.31;5101209;28;20435;-58
2023/12/03 03:22:18;;;;;;;0.50;0.30;;;;;;;10.38;100.00;94741.72;5114786;28;20475;-58
2023/12/03 03:24:46;;;;;;;0.50;0.40;;;;;;;10.37;100.00;94739.34;5088065;28;20443;-58
2023/12/03 03:27:15;;;;;;;0.30;0.30;;;;;;;10.40;100.00;94749.38;5100591;28;20489;-57
2023/12/03 03:29:43;;;;;;;0.40;0.30;;;;;;;10.37;100.00;94749.94;5102368;28;20473;-58
2023/12/03 03:32:13;;;;;;;0.50;0.30;;;;;;;10.36;100.00;94764.25;5100883;28;20875;-58
2023/12/03 03:34:42;;;;;;;0.40;0.30;;;;;;;10.33;100.00;94759.50;5114490;28;20435;-58
2023/12/03 03:37:11;;;;;;;0.50;0.30;;;;;;;10.29;100.00;94764.59;5112550;28;20492;-59
2023/12/03 03:39:39;;;;;;;0.90;0.30;;;;;;;10.30;100.00;94765.34;5094853;28;20440;-58
2023/12/03 03:42:08;;;;;;;0.30;0.30;;;;;;;10.24;100.00;94762.00;5110187;28;20584;-57
2023/12/03 03:44:37;;;;;;;0.40;0.30;;;;;;;10.19;100.00;94765.47;5115116;28;20475;-58
2023/12/03 03:47:05;;;;;;;0.40;0.30;;;;;;;10.04;100.00;94778.81;5111544;28;20877;-58
2023/12/03 03:49:35;;;;;;;0.40;0.30;;;;;;;9.97;100.00;94786.28;5094671;28;20443;-58
2023/12/03 03:52:05;;;;;;;0.60;0.50;;;;;;;9.99;100.00;94781.50;5107961;28;21042;-58
2023/12/03 03:54:33;;;;;;;0.57;0.50;;;;;;;10.07;100.00;94788.06;5094227;28;20531;-58
2023/12/03 03:57:02;;;;;;;0.50;0.40;;;;;;;9.90;100.00;94788.47;5107394;28;20519;-57
2023/12/03 03:59:30;;;;;;;6.53;0.83;;;;;;;9.98;100.00;94792.38;5106109;28;20500;-58
2023/12/03 04:01:59;;;;;;;0.90;0.90;;;;;;;9.91;100.00;94798.00;5108033;28;20480;-58
2023/12/03 04:04:28;;;;;;;1.60;1.13;;;;;;;10.01;100.00;94803.22;5107473;28;20996;-58
2023/12/03 04:06:58;;;;;;;1.80;0.53;;;;;;;10.08;100.00;94805.53;5114535;28;20447;-58
2023/12/03 04:09:26;;;;;;;0.63;0.63;;;;;;;10.14;100.00;94794.63;5114333;28;20482;-56
2023/12/03 04:11:55;;;;;;;0.40;0.40;;;;;;;10.05;100.00;94790.19;5114650;28;20466;-58
2023/12/03 04:14:24;;;;;;;1.17;0.93;;;;;;;9.98;100.00;94806.41;5099389;28;20479;-58
2023/12/03 04:16:52;;;;;;;0.50;0.30;;;;;;;9.98;100.00;94817.00;5093873;28;20524;-58
2023/12/03 04:19:21;;;;;;;0.80;0.80;;;;;;;10.01;100.00;94803.22;5109743;28;20492;-58
2023/12/03 04:21:50;;;;;;;1.07;0.80;;;;;;;10.01;100.00;94802.41;5104684;28;20845;-58
2023/12/03 04:24:20;;;;;;;1.50;1.40;;;;;;;10.10;100.00;94814.78;5092802;28;20439;-57
2023/12/03 04:26:48;;;;;;;0.40;0.40;;;;;;;9.80;100.00;94767.38;5103821;28;20435;-57
2023/12/03 04:29:17;;;;;;;0.60;0.60;;;;;;;10.14;100.00;94831.72;5099973;28;20898;-57
2023/12/03 04:31:45;;;;;;;1.03;0.57;;;;;;;9.59;100.00;94846.09;5114345;28;20516;-58
2023/12/03 04:34:14;;;;;;;1.87;0.60;;;;;;;9.84;100.00;94836.44;5095151;28;20815;-58
2023/12/03 04:36:43;;;;;;;0.90;0.77;;;;;;;9.19;100.00;94715.97;5105662;28;20994;-58
2023/12/03 04:39:12;;;;;;;0.60;0.40;;;;;;;10.11;100.00;94837.56;5098802;28;20440;-58
2023/12/03 04:41:42;;;;;;;0.37;0.30;;;;;;;9.89;100.00;94834.53;5100307;28;20809;-57
2023/12/03 04:44:10;;;;;;;0.40;0.30;;;;;;;9.57;100.00;94836.88;5112404;28;20432;-56
2023/12/03 04:46:41;;;;;;;0.40;0.30;;;;;;;9.68;100.00;94837.59;5100962;28;20588;-57
2023/12/03 04:49:10;;;;;;;1.80;1.17;;;;;;;9.76;100.00;94863.50;5099929;28;20431;-56
2023/12/03 04:51:39;;;;;;;7.93;1.10;;;;;;;9.97;100.00;94864.91;5100225;28;20447;-57
2023/12/03 04:54:07;;;;;;;1.13;1.03;;;;;;;10.18;100.00;94866.38;5113697;28;20435;-57
2023/12/03 04:56:36;;;;;;;1.77;1.53;;;;;;;10.17;100.00;94860.28;5098695;28;20475;-57
2023/12/03 04:59:06;;;;;;;0.67;0.67;;;;;;;10.18;100.00;94858.44;5101850;28;20471;-57
2023/12/03 05:01:35;;;;;;;0.80;0.80;;;;;;;10.26;100.00;94849.91;5113642;28;20974;-57
2023/12/03 05:04:03;;;;;;;9.30;0.87;;;;;;;10.32;100.00;94854.09;5113819;28;20459;-56
2023/12/03 05:06:32;;;;;;;1.60;0.80;;;;;;;10.13;100.00;94850.53;5095997;28;20518;-57
2023/12/03 05:09:01;;;;;;;1.80;0.60;;;;;;;10.20;100.00;94854.44;5093275;28;20448;-57
2023/12/03 05:11:29;;;;;;;0.70;0.70;;;;;;;9.85;100.00;94865.28;5092606;28;20429;-57
2023/12/03 05:13:58;;;;;;;0.73;0.73;;;;;;;9.67;100.00;94868.56;5092715;28;20489;-57
2023/12/03 05:16:28;;;;;;;5.63;1.70;;;;;;;9.71;100.00;94856.38;5111036;28;20777;-57
2023/12/03 05:18:56;;;;;;;1.27;1.20;;;;;;;9.92;100.00;94849.84;5101410;28;20436;-57
2023/12/03 05:21:25;;;;;;;1.80;1.70;;;;;;;10.04;100.00;94863.53;5111175;28;20435;-57
2023/12/03 05:23:54;;;;;;;0.40;0.33;;;;;;;10.04;100.00;94858.22;5112793;28;20482;-61
2023/12/03 05:26:22;;;;;;;1.03;0.83;;;;;;;10.06;100.00;94853.47;5092893;28;20870;-58
2023/12/03 05:28:51;;;;;;;2.60;1.73;;;;;;;10.19;100.00;94889.91;5091685;28;20463;-58
2023/12/03 05:31:19;;;;;;;0.43;0.40;;;;;;;10.15;100.00;94891.56;5079304;28;20436;-58
2023/12/03 05:33:49;;;;;;;12.03;0.93;;;;;;;10.13;100.00;94901.63;5106592;28;20526;-58
2023/12/03 05:36:22;;;;;;;5.90;0.57;;;;;;;10.24;100.00;94904.22;5112684;28;20947;-58
2023/12/03 05:38:52;;;;;;;0.90;0.50;;;;;;;10.27;100.00;94906.31;5096145;28;20571;-58
2023/12/03 05:41:21;;;;;;;1.20;1.10;;;;;;;10.26;100.00;94904.72;5092279;28;20436;-58
2023/12/03 05:43:49;;;;;;;1.43;1.30;;;;;;;10.27;100.00;94903.66;5105625;28;20480;-58
2023/12/03 05:46:18;;;;;;;5.53;0.93;;;;;;;10.19;100.00;94892.56;5102435;28;20439;-58
2023/12/03 05:48:46;;;;;;;1.27;1.17;;;;;;;10.29;100.00;94910.25;5112865;28;20795;-58
2023/12/03 05:51:17;;;;;;;0.70;0.70;;;;;;;10.25;100.00;94914.50;5100786;28;20464;-58
2023/12/03 05:53:45;;;;;;;3.03;1.57;;;;;;;10.20;100.00;94910.06;5110107;28;20471;-58
2023/12/03 05:56:14;;;;;;;1.17;1.17;;;;;;;10.28;100.00;94913.16;5100367;28;20448;-58
2023/12/03 05:58:42;;;;;;;6.63;2.10;;;;;;;10.39;100.00;94920.00;5091887;28;20432;-58
2023/12/03 06:01:11;;;;;;;3.23;1.90;;;;;;;10.31;100.00;94915.28;5092293;28;20440;-58
2023/12/03 06:03:39;;;;;;;2.40;1.90;;;;;;;10.27;100.00;94916.91;5098466;28;20479;-58
2023/12/03 06:06:09;;;;;;;1.60;1.50;;;;;;;10.36;100.00;94915.22;5112171;28;20467;-58
2023/12/03 06:08:39;;;;;;;8.03;2.63;;;;;;;10.30;100.00;94918.97;5085949;28;20436;-58
2023/12/03 06:11:08;;;;;;;1.33;1.23;;;;;;;10.37;100.00;94920.28;5097297;28;20436;-57
2023/12/03 06:13:36;;;;;;;6.00;2.60;;;;;;;10.36;100.00;94918.69;5100420;28;20462;-58
2023/12/03 06:16:06;;;;;;;4.10;1.50;;;;;;;10.28;100.00;94924.56;5110076;28;20519;-58
2023/12/03 06:18:35;;;;;;;3.60;1.67;;;;;;;10.40;100.00;94932.94;5100440;28;20436;-58
2023/12/03 06:21:04;;;;;;;2.10;1.37;;;;;;;10.37;100.00;94919.47;5093626;28;20474;-58
2023/12/03 06:23:32;;;;;;;10.33;1.90;;;;;;;10.49;100.00;94938.44;5111771;28;20486;-58
2023/12/03 06:26:02;;;;;;;8.33;3.10;;;;;;;10.39;100.00;94941.97;5098110;28;20432;-58
2023/12/03 06:28:31;;;;;;;14.50;5.30;;;;;;;10.12;100.00;94941.63;5111492;28;20941;-59
2023/12/03 06:30:59;;;;;;;3.73;3.57;;;;;;;10.25;100.00;94948.94;5097022;28;20440;-58
2023/12/03 06:33:28;;;;;;;3.27;3.07;;;;;;;9.93;100.00;94867.34;5100145;28;20490;-58
2023/12/03 06:35:57;;;;;;;6.67;3.83;;;;;;;10.47;100.00;94949.34;5097077;28;20538;-58
2023/12/03 06:38:26;;;;;;;6.67;3.53;;;;;;;10.38;100.00;94950.19;5098992;28;20443;-59
2023/12/03 06:40:54;;;;;;;1.87;1.77;;;;;;;10.39;100.00;94939.31;5091235;28;20505;-58
2023/12/03 06:43:24;;;;;;;2.63;2.47;;;;;;;10.49;100.00;94946.41;5105248;28;20470;-57
2023/12/03 06:45:53;;;;;;;2.80;1.50;;;;;;;10.46;100.00;94944.28;5091695;28;20440;-58
2023/12/03 06:48:22;;;;;;;4.20;4.00;;;;;;;10.35;100.00;94958.69;5094387;28;20446;-58
2023/12/03 06:50:50;;;;;;;5.13;4.70;;;;;;;10.35;100.00;94964.00;5102449;28;20448;-58
2023/12/03 06:53:19;;;;;;;11.13;5.20;;;;;;;10.47;100.00;94953.84;5115810;28;20443;-58
2023/12/03 06:55:50;;;;;;;5.97;3.50;;;;;;;10.52;100.00;94956.44;5112396;28;20604;-59
2023/12/03 06:58:19;;;;;;;4.83;4.57;;;;;;;10.48;100.00;94955.41;5106747;28;20431;-59
2023/12/03 07:00:49;;;;;;;5.33;4.20;;;;;;;10.67;100.00;94958.97;5104546;28;20436;-59
2023/12/03 07:03:17;;;;;;;5.17;4.50;;;;;;;10.76;100.00;94958.09;5108396;28;20561;-59
2023/12/03 07:05:46;;;;;;;6.60;3.33;;;;;;;10.82;100.00;94964.16;5103444;28;20432;-60
2023/12/03 07:08:14;;;;;;;5.77;2.03;;;;;;;10.89;100.00;94963.81;5096078;28;20435;-59
2023/12/03 07:10:43;;;;;;;5.37;2.93;;;;;;;10.96;100.00;94970.38;5102797;28;20436;-58
2023/12/03 07:13:12;;;;;;;3.20;3.00;;;;;;;10.74;100.00;94972.69;5116081;28;20851;-59
2023/12/03 07:15:43;;;;;;;6.63;5.30;;;;;;;10.84;100.00;94977.91;5113022;28;20436;-59
2023/12/03 07:18:14;;;;;;;6.63;5.07;;;;;;;10.73;100.00;94947.25;5106991;28;20450;-59
2023/12/03 07:20:43;;;;;;;5.50;2.87;;;;;;;11.08;100.00;94968.13;5097760;28;20485;-59
2023/12/03 07:23:11;;;;;;;7.20;3.87;;;;;;;11.31;100.00;94970.00;5109661;28;20816;-59
2023/12/03 07:25:40;;;;;;;5.03;4.63;;;;;;;11.31;100.00;94969.22;5109964;28;20435;-60
2023/12/03 07:28:08;;;;;;;7.63;4.37;;;;;;;11.37;100.00;94970.75;5101512;28;20487;-60
2023/12/03 07:30:37;;;;;;;3.03;2.77;;;;;;;11.49;100.00;94971.94;5115674;28;20470;-59
2023/12/03 07:33:05;;;;;;;10.00;4.93;;;;;;;11.43;100.00;94969.63;5096024;28;20522;-60
2023/12/03 07:35:36;;;;;;;10.03;6.70;;;;;;;11.26;100.00;94953.34;5095115;28;20586;-60
2023/12/03 07:38:04;;;;;;;6.23;4.27;;;;;;;11.18;100.00;94961.94;5094610;28;20873;-59
2023/12/03 07:40:33;;;;;;;5.87;5.20;;;;;;;10.96;100.00;94972.22;5107287;28;20438;-59
2023/12/03 07:43:01;;;;;;;22.40;8.50;;;;;;;10.88;100.00;94972.84;5114317;27;20998;-61
2023/12/03 07:45:30;;;;;;;22.30;13.70;;;;;;;10.25;100.00;94917.16;5114452;28;20435;-60
2023/12/03 07:47:58;;;;;;;25.10;12.67;;;;;;;10.81;100.00;94975.81;5113648;28;20435;-60
2023/12/03 07:50:27;;;;;;;43.47;15.07;;;;;;;10.51;100.00;94981.34;5099862;28;20514;-59
2023/12/03 07:52:58;;;;;;;38.93;14.90;;;;;;;10.08;100.00;94973.13;5112761;28;20431;-60
2023/12/03 07:55:27;;;;;;;46.10;12.83;;;;;;;10.08;100.00;94922.81;5098050;28;20492;-59
2023/12/03 07:57:56;;;;;;;13.30;8.30;;;;;;;10.37;100.00;94938.81;5099378;28;20438;-60
2023/12/03 08:00:24;;;;;;;6.77;5.20;;;;;;;10.60;100.00;94966.47;5097632;28;20431;-60
2023/12/03 08:02:53;;;;;;;12.43;6.27;;;;;;;11.10;100.00;94987.22;5097660;28;20548;-60
2023/12/03 08:05:22;;;;;;;13.57;6.23;;;;;;;11.16;100.00;94990.59;5085237;28;20475;-60
2023/12/03 08:07:50;;;;;;;9.20;5.60;;;;;;;11.13;100.00;94965.41;5099701;28;20447;-61
2023/12/03 08:10:20;;;;;;;4.53;4.30;;;;;;;11.28;100.00;94961.84;5101582;28;20435;-60
2023/12/03 08:12:49;;;;;;;23.33;6.67;;;;;;;11.14;100.00;94969.66;5113541;28;20440;-59
2023/12/03 08:15:17;;;;;;;3.70;3.40;;;;;;;11.51;100.00;94960.25;5105235;28;20454;-59
2023/12/03 08:17:46;;;;;;;16.70;6.33;;;;;;;11.50;100.00;94993.97;5095410;28;20456;-59
2023/12/03 08:20:14;;;;;;;11.50;4.13;;;;;;;11.75;100.00;94998.22;5113838;28;20431;-60
2023/12/03 08:22:43;;;;;;;3.30;3.00;;;;;;;11.61;100.00;94960.94;5096274;28;20963;-60
2023/12/03 08:25:11;;;;;;;5.73;5.23;;;;;;;11.88;100.00;94976.28;5103893;28;20476;-59
2023/12/03 08:27:42;;;;;;;14.13;6.00;;;;;;;11.92;100.00;94974.63;5098868;28;20810;-60
2023/12/03 08:30:12;;;;;;;5.57;4.73;;;;;;;12.01;100.00;94949.03;5113359;28;20436;-59
2023/12/03 08:32:41;;;;;;;3.33;3.13;;;;;;;12.27;100.00;94971.50;5094095;28;20513;-60
2023/12/03 08:35:10;;;;;;;3.33;3.10;;;;;;;12.40;100.00;94984.06;5093215;28;20472;-60
2023/12/03 08:37:39;;;;;;;5.00;4.70;;;;;;;12.50;100.00;94988.44;5106428;28;20493;-60
2023/12/03 08:40:09;;;;;;;3.70;3.50;;;;;;;12.47;100.00;94973.09;5106814;28;20439;-60
2023/12/03 08:42:39;;;;;;;2.53;2.17;;;;;;;12.61;100.00;94974.72;5113249;28;20431;-59
2023/12/03 08:45:10;;;;;;;4.03;3.73;;;;;;;12.73;100.00;94988.34;5112787;28;20995;-59
2023/12/03 08:47:40;;;;;;;5.67;4.17;;;;;;;12.65;100.00;94973.03;5088118;28;20427;-60
2023/12/03 08:50:10;;;;;;;2.20;2.10;;;;;;;12.72;100.00;94985.97;5097576;28;20436;-63
2023/12/03 08:52:41;;;;;;;5.20;3.77;;;;;;;12.56;100.00;94969.47;5101291;28;20782;-60
2023/12/03 08:55:14;;;;;;;7.20;3.20;;;;;;;12.74;100.00;94959.88;5113308;28;20492;-59
2023/12/03 08:57:44;;;;;;;4.20;4.00;;;;;;;12.63;100.00;94953.94;5102555;28;20468;-60
2023/12/03 09:00:16;;;;;;;5.77;4.97;;;;;;;12.73;100.00;94985.69;5105815;28;20503;-60
2023/12/03 09:02:46;;;;;;;3.90;2.77;;;;;;;12.64;100.00;94947.56;5104275;28;20518;-60
2023/12/03 09:05:16;;;;;;;4.07;3.77;;;;;;;12.80;100.00;94964.03;5098972;28;20503;-61
2023/12/03 09:07:45;;;;;;;3.37;3.20;;;;;;;13.04;100.00;94951.41;5099560;28;20472;-59
2023/12/03 09:10:15;;;;;;;21.33;3.63;;;;;;;12.85;100.00;94971.16;5085586;28;20442;-60
2023/12/03 09:12:44;;;;;;;7.20;2.57;;;;;;;12.70;100.00;94954.34;5098053;28;20439;-60
2023/12/03 09:15:16;;;;;;;2.20;2.00;;;;;;;12.79;100.00;94959.00;5092145;28;20463;-60
2023/12/03 09:17:46;;;;;;;5.67;3.43;;;;;;;12.75;100.00;94958.78;5105177;28;20443;-60
2023/12/03 09:20:15;;;;;;;21.77;3.10;;;;;;;12.74;100.00;94954.56;5100918;28;20526;-60
2023/12/03 09:22:45;;;;;;;3.93;3.23;;;;;;;12.85;100.00;94957.84;5096057;28;20440;-59
2023/12/03 09:25:14;;;;;;;4.13;3.83;;;;;;;12.92;100.00;94964.38;5101758;28;20565;-61
2023/12/03 09:27:44;;;;;;;3.67;3.33;;;;;;;13.17;100.00;94939.22;5094341;28;20460;-60
2023/12/03 09:30:16;;;;;;;5.23;3.03;;;;;;;12.94;100.00;94916.19;5091677;28;20432;-60
2023/12/03 09:32:45;;;;;;;8.83;2.40;;;;;;;13.46;99.97;94953.03;5105261;28;20446;-59
2023/12/03 09:35:15;;;;;;;3.23;2.40;;;;;;;13.45;98.67;94948.81;5091823;28;20448;-60
2023/12/03 09:37:44;;;;;;;3.53;3.23;;;;;;;13.17;100.00;94947.19;5104991;28;20433;-60
2023/12/03 09:40:14;;;;;;;3.77;3.47;;;;;;;12.79;100.00;94900.50;5091863;28;20432;-59
2023/12/03 09:42:47;;;;;;;10.43;3.17;;;;;;;13.34;100.00;94944.75;5111867;28;20436;-59
2023/12/03 09:45:20;;;;;;;2.40;2.30;;;;;;;13.16;100.00;94911.81;5098023;28;20537;-60
2023/12/03 09:47:53;;;;;;;7.70;5.83;;;;;;;13.29;100.00;94942.19;5111879;28;20530;-59
2023/12/03 09:50:22;;;;;;;4.30;4.10;;;;;;;13.18;100.00;94920.28;5111261;28;20467;-59
2023/12/03 09:52:54;;;;;;;4.53;3.73;;;;;;;13.55;100.00;94934.50;5100983;28;20447;-59
2023/12/03 09:55:26;;;;;;;3.83;1.87;;;;;;;13.66;95.94;94914.59;5091180;28;20613;-59
2023/12/03 09:57:56;;;;;;;3.13;2.83;;;;;;;13.46;95.99;94907.78;5104025;28;20439;-59
2023/12/03 10:00:29;;;;;;;21.73;3.77;;;;;;;13.61;95.87;94928.78;5090659;28;20436;-59
2023/12/03 10:02:58;;;;;;;2.17;2.00;;;;;;;13.74;95.43;94912.00;5091691;28;20428;-57
2023/12/03 10:05:28;;;;;;;4.67;1.40;;;;;;;13.74;95.98;94889.91;5091207;28;20999;-57
2023/12/03 10:07:58;;;;;;;6.20;2.20;;;;;;;13.71;98.75;94917.91;5104139;28;20997;-58
2023/12/03 10:10:31;;;;;;;6.80;1.97;;;;;;;13.48;99.19;94918.16;5103577;28;20432;-58
2023/12/03 10:13:02;;;;;;;20.33;6.80;;;;;;;13.40;100.00;94938.25;5093497;28;20440;-59
2023/12/03 10:15:34;;;;;;;3.30;2.93;;;;;;;13.16;100.00;94921.66;5111907;28;20867;-59
2023/12/03 10:18:03;;;;;;;4.20;3.10;;;;;;;13.06;100.00;94925.31;5097291;28;20432;-59
2023/12/03 10:20:33;;;;;;;4.13;3.70;;;;;;;13.15;100.00;94898.81;5111540;28;20445;-59
2023/12/03 10:23:02;;;;;;;1.33;1.00;;;;;;;13.28;100.00;94892.72;5110510;28;20443;-59
2023/12/03 10:25:33;;;;;;;1.63;1.63;;;;;;;13.38;100.00;94893.28;5111152;28;20470;-59
2023/12/03 10:28:04;;;;;;;3.63;1.83;;;;;;;13.34;100.00;94912.81;5104402;28;20463;-59
2023/12/03 10:30:35;;;;;;;7.97;3.80;;;;;;;13.15;100.00;94898.81;5104441;28;20443;-58
2023/12/03 10:33:05;;;;;;;3.03;2.87;;;;;;;13.36;100.00;94890.13;5099212;28;20968;-58
2023/12/03 10:35:36;;;;;;;2.17;2.07;;;;;;;13.19;100.00;94838.59;5095383;28;20494;-58
2023/12/03 10:38:08;;;;;;;3.03;1.10;;;;;;;13.15;100.00;94842.94;5090713;28;20952;-59
2023/12/03 10:40:38;;;;;;;10.37;4.30;;;;;;;13.22;100.00;94846.00;5090635;28;20827;-59
2023/12/03 10:43:08;;;;;;;3.00;2.90;;;;;;;13.25;100.00;94896.75;5101107;28;20443;-59
2023/12/03 10:45:38;;;;;;;13.23;4.30;;;;;;;12.95;100.00;94878.69;5110899;28;20478;-57
2023/12/03 10:48:08;;;;;;;6.73;2.70;;;;;;;13.01;100.00;94882.00;5111458;28;20438;-58
2023/12/03 10:50:43;;;;;;;2.60;1.97;;;;;;;13.38;100.00;94866.66;5105203;28;20523;-58
2023/12/03 10:53:16;;;;;;;8.30;2.47;;;;;;;13.86;99.82;94884.84;5090838;28;20879;-58
2023/12/03 10:55:47;;;;;;;9.73;1.20;;;;;;;13.68;98.00;94886.56;5078106;28;20436;-58
2023/12/03 10:58:19;;;;;;;2.10;2.00;;;;;;;13.90;98.21;94875.97;5090396;28;20519;-59
2023/12/03 11:01:00;;;;;;;2.97;2.13;;;;;;;14.30;96.01;94892.09;5098856;28;20829;-59
2023/12/03 11:03:41;;;;;;;5.00;3.90;;;;;;;14.26;94.41;94885.81;5106490;28;20436;-59
2023/12/03 11:06:15;;;;;;;2.20;1.90;;;;;;;14.34;93.99;94904.59;5103918;28;20498;-59
2023/12/03 11:08:46;;;;;;;9.20;2.23;;;;;;;14.63;93.14;94904.13;5103562;28;20433;-59
2023/12/03 11:11:16;;;;;;;11.77;3.53;;;;;;;15.03;90.99;94876.44;5091777;28;20475;-60
2023/12/03 11:13:45;;;;;;;13.67;6.30;;;;;;;15.56;88.35;94908.38;5110832;28;20534;-61
2023/12/03 11:16:20;;;;;;;3.80;3.60;;;;;;;16.05;84.44;94899.22;5110725;28;20439;-61
2023/12/03 11:18:54;;;;;;;8.40;3.77;;;;;;;15.55;80.33;94751.91;5111174;28;20617;-62
2023/12/03 11:21:33;;;;;;;12.93;4.07;;;;;;;16.13;76.55;94732.69;5091876;28;20427;-61
2023/12/03 11:24:37;;;;;;;12.30;4.10;;;;;;;17.01;74.61;94854.13;5090149;28;20956;-60
2023/12/03 11:27:07;;;;;;;14.03;4.63;;;;;;;17.12;74.51;94908.91;5081743;28;20992;-60
2023/12/03 11:29:51;;;;;;;3.77;3.43;;;;;;;17.24;75.06;94902.88;5094716;28;21002;-59
2023/12/03 11:32:24;;;;;;;10.00;5.57;;;;;;;17.07;75.67;94902.94;5109227;28;20858;-59
2023/12/03 11:35:08;;;;;;;3.80;3.50;;;;;;;16.86;76.87;94908.19;5100437;28;20926;-61
2023/12/03 11:37:41;;;;;;;9.07;6.57;;;;;;;16.60;76.38;94894.03;5107788;28;20439;-61